Adderbury, United Kingdom
Current Conditions -  °F | °C
As of 6:50 PM on Thursday 23 Oct 2014 (Local Time) from EGTK Reporting Station
Overcast Overcast  
Wind Chill: 59°   Ceiling: 1300
Heat Index: 59°   Visibility: 6mi
Dew Point: 57°   Wind: 10mph
Humidity: 94%   Direction: 200°SSW
Pressure: 30"   Gusts: NA
Location:  52.02°N, 1.31°W
Report Text: EGTK 231750Z 20009KT 9999 BKN013 OVC017 15/14 Q1016
Loading
Personal Weather Stations






























Interactive Weather Map
Tropical Storm Tracking
New forecast layout! Learn more

10-Day Weather Forecast

Advertisements
Track Severe Weather on mobile